sensor_id;sensor_type;location;lat;lon;timestamp;P1;durP1;ratioP1;P2;durP2;ratioP2
68888;SDS011;55930;47.412;8.790;2022-11-24T00:00:44;3.37;;;1.20;;
68888;SDS011;55930;47.412;8.790;2022-11-24T00:04:07;3.15;;;1.17;;
68888;SDS011;55930;47.412;8.790;2022-11-24T00:07:27;1.93;;;1.27;;
68888;SDS011;55930;47.412;8.790;2022-11-24T00:10:47;5.00;;;1.50;;
68888;SDS011;55930;47.412;8.790;2022-11-24T00:14:08;3.27;;;1.10;;
68888;SDS011;55930;47.412;8.790;2022-11-24T00:17:31;3.72;;;1.40;;
68888;SDS011;55930;47.412;8.790;2022-11-24T00:20:51;6.13;;;1.40;;
68888;SDS011;55930;47.412;8.790;2022-11-24T00:24:12;5.10;;;2.40;;
68888;SDS011;55930;47.412;8.790;2022-11-24T00:27:32;4.73;;;1.60;;
68888;SDS011;55930;47.412;8.790;2022-11-24T00:30:55;2.53;;;1.30;;
68888;SDS011;55930;47.412;8.790;2022-11-24T00:34:15;4.25;;;1.50;;
68888;SDS011;55930;47.412;8.790;2022-11-24T00:37:36;4.50;;;1.40;;
68888;SDS011;55930;47.412;8.790;2022-11-24T00:40:56;2.63;;;1.50;;
68888;SDS011;55930;47.412;8.790;2022-11-24T00:44:16;4.73;;;1.60;;
68888;SDS011;55930;47.412;8.790;2022-11-24T00:47:37;4.73;;;1.80;;
68888;SDS011;55930;47.412;8.790;2022-11-24T00:50:58;4.70;;;1.53;;
68888;SDS011;55930;47.412;8.790;2022-11-24T00:54:22;6.43;;;1.92;;
68888;SDS011;55930;47.412;8.790;2022-11-24T00:57:43;6.10;;;1.53;;
68888;SDS011;55930;47.412;8.790;2022-11-24T01:01:04;4.97;;;1.40;;
68888;SDS011;55930;47.412;8.790;2022-11-24T01:04:27;8.35;;;2.03;;
68888;SDS011;55930;47.412;8.790;2022-11-24T01:07:47;4.50;;;1.60;;
68888;SDS011;55930;47.412;8.790;2022-11-24T01:11:08;7.00;;;1.43;;
68888;SDS011;55930;47.412;8.790;2022-11-24T01:14:32;4.40;;;1.45;;
68888;SDS011;55930;47.412;8.790;2022-11-24T01:17:52;5.17;;;1.13;;
68888;SDS011;55930;47.412;8.790;2022-11-24T01:21:13;8.97;;;1.60;;
68888;SDS011;55930;47.412;8.790;2022-11-24T01:24:36;4.47;;;1.75;;
68888;SDS011;55930;47.412;8.790;2022-11-24T01:27:59;7.70;;;2.03;;
68888;SDS011;55930;47.412;8.790;2022-11-24T01:31:20;5.90;;;1.60;;
68888;SDS011;55930;47.412;8.790;2022-11-24T01:34:41;7.90;;;2.35;;
68888;SDS011;55930;47.412;8.790;2022-11-24T01:38:01;6.50;;;1.40;;
68888;SDS011;55930;47.412;8.790;2022-11-24T01:41:22;10.03;;;1.70;;
68888;SDS011;55930;47.412;8.790;2022-11-24T01:44:44;6.10;;;1.70;;
68888;SDS011;55930;47.412;8.790;2022-11-24T01:48:04;6.33;;;1.30;;
68888;SDS011;55930;47.412;8.790;2022-11-24T01:51:33;6.90;;;1.83;;
68888;SDS011;55930;47.412;8.790;2022-11-24T01:54:59;3.67;;;1.50;;
68888;SDS011;55930;47.412;8.790;2022-11-24T01:58:26;4.85;;;1.15;;
68888;SDS011;55930;47.412;8.790;2022-11-24T02:01:51;6.50;;;1.45;;
68888;SDS011;55930;47.412;8.790;2022-11-24T02:05:21;4.95;;;1.60;;
68888;SDS011;55930;47.412;8.790;2022-11-24T02:08:59;7.60;;;1.80;;
68888;SDS011;55930;47.412;8.790;2022-11-24T02:12:27;4.60;;;1.75;;
68888;SDS011;55930;47.412;8.790;2022-11-24T02:15:52;6.80;;;1.88;;
68888;SDS011;55930;47.412;8.790;2022-11-24T02:23:04;5.95;;;2.03;;
68888;SDS011;55930;47.412;8.790;2022-11-24T02:26:40;4.95;;;1.48;;
68888;SDS011;55930;47.412;8.790;2022-11-24T02:30:03;5.32;;;1.65;;
68888;SDS011;55930;47.412;8.790;2022-11-24T02:33:24;6.50;;;1.45;;
68888;SDS011;55930;47.412;8.790;2022-11-24T02:36:45;7.50;;;1.92;;
68888;SDS011;55930;47.412;8.790;2022-11-24T02:40:05;7.73;;;2.03;;
68888;SDS011;55930;47.412;8.790;2022-11-24T02:43:26;5.03;;;1.73;;
68888;SDS011;55930;47.412;8.790;2022-11-24T02:47:02;5.40;;;1.85;;
68888;SDS011;55930;47.412;8.790;2022-11-24T02:50:24;6.85;;;2.13;;
68888;SDS011;55930;47.412;8.790;2022-11-24T02:53:44;6.93;;;1.83;;
68888;SDS011;55930;47.412;8.790;2022-11-24T02:57:05;7.93;;;1.93;;
68888;SDS011;55930;47.412;8.790;2022-11-24T03:00:25;10.83;;;2.70;;
68888;SDS011;55930;47.412;8.790;2022-11-24T03:03:48;4.47;;;1.98;;
68888;SDS011;55930;47.412;8.790;2022-11-24T03:07:08;7.90;;;1.63;;
68888;SDS011;55930;47.412;8.790;2022-11-24T03:10:29;6.93;;;1.47;;
68888;SDS011;55930;47.412;8.790;2022-11-24T03:13:50;7.83;;;1.80;;
68888;SDS011;55930;47.412;8.790;2022-11-24T03:17:10;5.72;;;1.50;;
68888;SDS011;55930;47.412;8.790;2022-11-24T03:20:31;9.50;;;1.90;;
68888;SDS011;55930;47.412;8.790;2022-11-24T03:23:52;6.67;;;1.30;;
68888;SDS011;55930;47.412;8.790;2022-11-24T03:27:13;4.43;;;1.30;;
68888;SDS011;55930;47.412;8.790;2022-11-24T03:30:33;5.53;;;1.10;;
68888;SDS011;55930;47.412;8.790;2022-11-24T03:33:56;4.78;;;1.13;;
68888;SDS011;55930;47.412;8.790;2022-11-24T03:37:19;5.53;;;1.17;;
68888;SDS011;55930;47.412;8.790;2022-11-24T03:40:40;4.85;;;1.48;;
68888;SDS011;55930;47.412;8.790;2022-11-24T03:44:00;5.63;;;1.40;;
68888;SDS011;55930;47.412;8.790;2022-11-24T03:47:20;6.17;;;1.40;;
68888;SDS011;55930;47.412;8.790;2022-11-24T03:50:50;4.63;;;1.42;;
68888;SDS011;55930;47.412;8.790;2022-11-24T03:54:14;5.43;;;1.52;;
68888;SDS011;55930;47.412;8.790;2022-11-24T03:57:35;5.30;;;1.40;;
68888;SDS011;55930;47.412;8.790;2022-11-24T04:00:55;4.10;;;1.40;;
68888;SDS011;55930;47.412;8.790;2022-11-24T04:04:16;7.65;;;1.30;;
68888;SDS011;55930;47.412;8.790;2022-11-24T04:07:36;4.37;;;1.83;;
68888;SDS011;55930;47.412;8.790;2022-11-24T04:10:57;6.43;;;1.30;;
68888;SDS011;55930;47.412;8.790;2022-11-24T04:14:19;8.73;;;1.70;;
68888;SDS011;55930;47.412;8.790;2022-11-24T04:17:40;7.80;;;1.50;;
68888;SDS011;55930;47.412;8.790;2022-11-24T04:21:00;7.43;;;1.47;;
68888;SDS011;55930;47.412;8.790;2022-11-24T04:24:21;5.63;;;1.20;;
68888;SDS011;55930;47.412;8.790;2022-11-24T04:27:41;8.77;;;1.47;;
68888;SDS011;55930;47.412;8.790;2022-11-24T04:31:03;5.15;;;1.48;;
68888;SDS011;55930;47.412;8.790;2022-11-24T04:34:24;9.38;;;1.50;;
68888;SDS011;55930;47.412;8.790;2022-11-24T04:37:45;7.30;;;1.47;;
68888;SDS011;55930;47.412;8.790;2022-11-24T04:41:05;6.53;;;1.30;;
68888;SDS011;55930;47.412;8.790;2022-11-24T04:44:26;6.30;;;1.10;;
68888;SDS011;55930;47.412;8.790;2022-11-24T04:47:46;5.93;;;1.50;;
68888;SDS011;55930;47.412;8.790;2022-11-24T04:51:07;7.73;;;1.40;;
68888;SDS011;55930;47.412;8.790;2022-11-24T04:54:27;7.50;;;1.50;;
68888;SDS011;55930;47.412;8.790;2022-11-24T04:57:47;6.23;;;1.20;;
68888;SDS011;55930;47.412;8.790;2022-11-24T05:01:08;5.23;;;1.77;;
68888;SDS011;55930;47.412;8.790;2022-11-24T05:04:28;5.30;;;1.40;;
68888;SDS011;55930;47.412;8.790;2022-11-24T05:07:49;3.33;;;1.23;;
68888;SDS011;55930;47.412;8.790;2022-11-24T05:11:09;5.37;;;1.40;;
68888;SDS011;55930;47.412;8.790;2022-11-24T05:14:29;5.00;;;1.20;;
68888;SDS011;55930;47.412;8.790;2022-11-24T05:17:50;4.37;;;1.20;;
68888;SDS011;55930;47.412;8.790;2022-11-24T05:21:13;5.20;;;1.42;;
68888;SDS011;55930;47.412;8.790;2022-11-24T05:24:33;7.37;;;1.30;;
68888;SDS011;55930;47.412;8.790;2022-11-24T05:27:54;7.80;;;1.37;;
68888;SDS011;55930;47.412;8.790;2022-11-24T05:31:17;4.60;;;2.00;;
68888;SDS011;55930;47.412;8.790;2022-11-24T05:34:38;4.07;;;1.70;;
68888;SDS011;55930;47.412;8.790;2022-11-24T05:38:01;4.82;;;1.80;;
68888;SDS011;55930;47.412;8.790;2022-11-24T05:41:23;8.70;;;3.97;;
68888;SDS011;55930;47.412;8.790;2022-11-24T05:44:43;13.50;;;4.83;;
68888;SDS011;55930;47.412;8.790;2022-11-24T05:48:04;12.23;;;4.33;;
68888;SDS011;55930;47.412;8.790;2022-11-24T05:51:26;13.50;;;4.10;;
68888;SDS011;55930;47.412;8.790;2022-11-24T05:54:46;5.83;;;1.63;;
68888;SDS011;55930;47.412;8.790;2022-11-24T05:58:07;14.00;;;2.27;;
68888;SDS011;55930;47.412;8.790;2022-11-24T06:01:28;5.10;;;1.95;;
68888;SDS011;55930;47.412;8.790;2022-11-24T06:04:49;5.07;;;1.40;;
68888;SDS011;55930;47.412;8.790;2022-11-24T06:08:09;6.77;;;1.50;;
68888;SDS011;55930;47.412;8.790;2022-11-24T06:11:34;6.82;;;1.75;;
68888;SDS011;55930;47.412;8.790;2022-11-24T06:14:55;3.90;;;1.17;;
68888;SDS011;55930;47.412;8.790;2022-11-24T06:18:15;6.13;;;1.40;;
68888;SDS011;55930;47.412;8.790;2022-11-24T06:21:35;5.73;;;1.13;;
68888;SDS011;55930;47.412;8.790;2022-11-24T06:24:56;7.57;;;1.27;;
68888;SDS011;55930;47.412;8.790;2022-11-24T06:28:19;5.60;;;1.45;;
68888;SDS011;55930;47.412;8.790;2022-11-24T06:31:39;7.03;;;1.47;;
68888;SDS011;55930;47.412;8.790;2022-11-24T06:35:00;6.53;;;2.23;;
68888;SDS011;55930;47.412;8.790;2022-11-24T06:38:22;6.97;;;1.58;;
68888;SDS011;55930;47.412;8.790;2022-11-24T06:41:46;7.30;;;1.67;;
68888;SDS011;55930;47.412;8.790;2022-11-24T06:45:11;9.52;;;1.80;;
68888;SDS011;55930;47.412;8.790;2022-11-24T06:48:32;7.50;;;1.90;;
68888;SDS011;55930;47.412;8.790;2022-11-24T06:51:53;11.10;;;1.70;;
68888;SDS011;55930;47.412;8.790;2022-11-24T06:55:13;7.88;;;1.77;;
68888;SDS011;55930;47.412;8.790;2022-11-24T06:58:34;5.13;;;1.43;;
68888;SDS011;55930;47.412;8.790;2022-11-24T07:01:59;8.73;;;1.60;;
68888;SDS011;55930;47.412;8.790;2022-11-24T07:05:19;5.20;;;1.40;;
68888;SDS011;55930;47.412;8.790;2022-11-24T07:08:39;11.47;;;2.33;;
68888;SDS011;55930;47.412;8.790;2022-11-24T07:12:00;10.67;;;2.30;;
68888;SDS011;55930;47.412;8.790;2022-11-24T07:15:21;10.27;;;1.70;;
68888;SDS011;55930;47.412;8.790;2022-11-24T07:18:42;5.90;;;1.87;;
68888;SDS011;55930;47.412;8.790;2022-11-24T07:22:03;8.90;;;1.35;;
68888;SDS011;55930;47.412;8.790;2022-11-24T07:25:24;5.83;;;1.50;;
68888;SDS011;55930;47.412;8.790;2022-11-24T07:28:45;8.15;;;2.75;;
68888;SDS011;55930;47.412;8.790;2022-11-24T07:32:05;9.87;;;1.53;;
68888;SDS011;55930;47.412;8.790;2022-11-24T07:35:28;11.65;;;1.73;;
68888;SDS011;55930;47.412;8.790;2022-11-24T07:38:49;11.10;;;1.75;;
68888;SDS011;55930;47.412;8.790;2022-11-24T07:42:10;5.80;;;1.50;;
68888;SDS011;55930;47.412;8.790;2022-11-24T07:45:33;8.07;;;1.80;;
68888;SDS011;55930;47.412;8.790;2022-11-24T07:48:56;9.50;;;1.75;;
68888;SDS011;55930;47.412;8.790;2022-11-24T07:52:16;9.40;;;1.80;;
68888;SDS011;55930;47.412;8.790;2022-11-24T07:55:37;7.23;;;1.83;;
68888;SDS011;55930;47.412;8.790;2022-11-24T07:59:00;8.05;;;2.42;;
68888;SDS011;55930;47.412;8.790;2022-11-24T08:02:20;8.13;;;1.40;;
68888;SDS011;55930;47.412;8.790;2022-11-24T08:05:40;8.87;;;1.63;;
68888;SDS011;55930;47.412;8.790;2022-11-24T08:09:01;7.57;;;2.50;;
68888;SDS011;55930;47.412;8.790;2022-11-24T08:12:21;8.93;;;1.90;;
68888;SDS011;55930;47.412;8.790;2022-11-24T08:15:42;7.13;;;2.20;;
68888;SDS011;55930;47.412;8.790;2022-11-24T08:19:02;12.27;;;2.00;;
68888;SDS011;55930;47.412;8.790;2022-11-24T08:22:22;11.07;;;1.70;;
68888;SDS011;55930;47.412;8.790;2022-11-24T08:25:43;13.13;;;1.90;;
68888;SDS011;55930;47.412;8.790;2022-11-24T08:29:03;13.17;;;1.87;;
68888;SDS011;55930;47.412;8.790;2022-11-24T08:32:24;9.70;;;1.87;;
68888;SDS011;55930;47.412;8.790;2022-11-24T08:35:44;8.37;;;1.70;;
68888;SDS011;55930;47.412;8.790;2022-11-24T08:39:04;9.37;;;1.73;;
68888;SDS011;55930;47.412;8.790;2022-11-24T08:42:25;8.83;;;1.60;;
68888;SDS011;55930;47.412;8.790;2022-11-24T08:45:45;8.23;;;1.80;;
68888;SDS011;55930;47.412;8.790;2022-11-24T08:49:05;9.27;;;1.63;;
68888;SDS011;55930;47.412;8.790;2022-11-24T08:52:27;9.10;;;2.03;;
68888;SDS011;55930;47.412;8.790;2022-11-24T08:55:47;7.23;;;1.73;;
68888;SDS011;55930;47.412;8.790;2022-11-24T08:59:08;7.63;;;1.73;;
68888;SDS011;55930;47.412;8.790;2022-11-24T09:02:31;8.60;;;1.80;;
68888;SDS011;55930;47.412;8.790;2022-11-24T09:05:51;11.50;;;1.77;;
68888;SDS011;55930;47.412;8.790;2022-11-24T09:09:12;8.90;;;1.97;;
68888;SDS011;55930;47.412;8.790;2022-11-24T09:12:35;6.53;;;1.75;;
68888;SDS011;55930;47.412;8.790;2022-11-24T09:15:55;5.17;;;1.60;;
68888;SDS011;55930;47.412;8.790;2022-11-24T09:19:16;7.73;;;2.00;;
68888;SDS011;55930;47.412;8.790;2022-11-24T09:22:36;8.70;;;1.97;;
68888;SDS011;55930;47.412;8.790;2022-11-24T09:26:08;10.38;;;2.63;;
68888;SDS011;55930;47.412;8.790;2022-11-24T09:29:33;8.43;;;1.77;;
68888;SDS011;55930;47.412;8.790;2022-11-24T09:32:57;8.85;;;1.70;;
68888;SDS011;55930;47.412;8.790;2022-11-24T09:36:18;6.53;;;2.20;;
68888;SDS011;55930;47.412;8.790;2022-11-24T09:39:41;7.80;;;1.70;;
68888;SDS011;55930;47.412;8.790;2022-11-24T09:43:10;7.33;;;1.57;;
68888;SDS011;55930;47.412;8.790;2022-11-24T09:50:33;6.10;;;1.50;;
68888;SDS011;55930;47.412;8.790;2022-11-24T09:57:35;6.13;;;1.65;;
68888;SDS011;55930;47.412;8.790;2022-11-24T10:01:03;7.82;;;1.52;;
68888;SDS011;55930;47.412;8.790;2022-11-24T10:04:42;8.10;;;1.83;;
68888;SDS011;55930;47.412;8.790;2022-11-24T10:08:15;10.10;;;1.80;;
68888;SDS011;55930;47.412;8.790;2022-11-24T10:26:04;7.47;;;1.97;;
68888;SDS011;55930;47.412;8.790;2022-11-24T10:29:33;9.07;;;2.25;;
68888;SDS011;55930;47.412;8.790;2022-11-24T10:33:01;6.82;;;1.70;;
68888;SDS011;55930;47.412;8.790;2022-11-24T10:36:30;11.07;;;1.77;;
68888;SDS011;55930;47.412;8.790;2022-11-24T10:43:32;9.57;;;1.65;;
68888;SDS011;55930;47.412;8.790;2022-11-24T10:46:53;9.63;;;2.17;;
68888;SDS011;55930;47.412;8.790;2022-11-24T10:53:44;9.25;;;2.08;;
68888;SDS011;55930;47.412;8.790;2022-11-24T10:57:07;7.72;;;1.83;;
68888;SDS011;55930;47.412;8.790;2022-11-24T11:00:28;8.30;;;1.87;;
68888;SDS011;55930;47.412;8.790;2022-11-24T11:03:50;8.32;;;1.98;;
68888;SDS011;55930;47.412;8.790;2022-11-24T11:07:18;9.88;;;1.58;;
68888;SDS011;55930;47.412;8.790;2022-11-24T11:10:44;9.13;;;2.22;;
68888;SDS011;55930;47.412;8.790;2022-11-24T11:14:09;5.95;;;1.25;;
68888;SDS011;55930;47.412;8.790;2022-11-24T11:17:34;6.63;;;2.25;;
68888;SDS011;55930;47.412;8.790;2022-11-24T11:21:00;9.68;;;1.40;;
68888;SDS011;55930;47.412;8.790;2022-11-24T11:24:21;10.35;;;1.67;;
68888;SDS011;55930;47.412;8.790;2022-11-24T11:27:41;8.13;;;1.80;;
68888;SDS011;55930;47.412;8.790;2022-11-24T11:31:03;11.03;;;2.07;;
68888;SDS011;55930;47.412;8.790;2022-11-24T11:34:27;9.77;;;1.63;;
68888;SDS011;55930;47.412;8.790;2022-11-24T11:37:55;13.40;;;1.92;;
68888;SDS011;55930;47.412;8.790;2022-11-24T11:41:19;8.85;;;1.90;;
68888;SDS011;55930;47.412;8.790;2022-11-24T11:44:53;9.32;;;1.67;;
68888;SDS011;55930;47.412;8.790;2022-11-24T11:51:58;8.25;;;1.88;;
68888;SDS011;55930;47.412;8.790;2022-11-24T11:55:27;7.45;;;1.80;;
68888;SDS011;55930;47.412;8.790;2022-11-24T12:03:12;14.20;;;1.92;;
68888;SDS011;55930;47.412;8.790;2022-11-24T12:11:17;11.10;;;1.77;;
68888;SDS011;55930;47.412;8.790;2022-11-24T12:18:37;8.48;;;2.17;;
68888;SDS011;55930;47.412;8.790;2022-11-24T12:25:50;8.18;;;6.68;;
68888;SDS011;55930;47.412;8.790;2022-11-24T12:29:24;9.48;;;7.90;;
68888;SDS011;55930;47.412;8.790;2022-11-24T12:43:43;13.63;;;2.10;;
68888;SDS011;55930;47.412;8.790;2022-11-24T12:50:49;10.32;;;2.10;;
68888;SDS011;55930;47.412;8.790;2022-11-24T12:54:15;8.25;;;2.05;;
68888;SDS011;55930;47.412;8.790;2022-11-24T12:57:43;10.25;;;2.63;;
68888;SDS011;55930;47.412;8.790;2022-11-24T13:04:58;7.03;;;2.42;;
68888;SDS011;55930;47.412;8.790;2022-11-24T13:08:37;6.13;;;1.88;;
68888;SDS011;55930;47.412;8.790;2022-11-24T13:12:07;4.50;;;1.50;;
68888;SDS011;55930;47.412;8.790;2022-11-24T13:19:19;7.55;;;1.80;;
68888;SDS011;55930;47.412;8.790;2022-11-24T13:22:47;5.97;;;1.65;;
68888;SDS011;55930;47.412;8.790;2022-11-24T13:26:13;4.47;;;1.50;;
68888;SDS011;55930;47.412;8.790;2022-11-24T13:29:46;5.80;;;1.60;;
68888;SDS011;55930;47.412;8.790;2022-11-24T13:36:32;8.18;;;1.88;;
68888;SDS011;55930;47.412;8.790;2022-11-24T13:39:57;5.63;;;1.45;;
68888;SDS011;55930;47.412;8.790;2022-11-24T13:43:19;7.45;;;1.60;;
68888;SDS011;55930;47.412;8.790;2022-11-24T13:47:00;5.80;;;1.95;;
68888;SDS011;55930;47.412;8.790;2022-11-24T13:50:23;5.63;;;2.28;;
68888;SDS011;55930;47.412;8.790;2022-11-24T13:54:07;8.00;;;3.35;;
68888;SDS011;55930;47.412;8.790;2022-11-24T13:57:33;6.50;;;3.95;;
68888;SDS011;55930;47.412;8.790;2022-11-24T14:01:17;5.97;;;3.72;;
68888;SDS011;55930;47.412;8.790;2022-11-24T14:04:42;9.13;;;3.72;;
68888;SDS011;55930;47.412;8.790;2022-11-24T14:11:24;8.15;;;2.80;;
68888;SDS011;55930;47.412;8.790;2022-11-24T14:14:47;8.43;;;3.97;;
68888;SDS011;55930;47.412;8.790;2022-11-24T14:18:19;6.57;;;3.60;;
68888;SDS011;55930;47.412;8.790;2022-11-24T14:21:41;7.13;;;3.80;;
68888;SDS011;55930;47.412;8.790;2022-11-24T14:25:03;5.90;;;3.40;;
68888;SDS011;55930;47.412;8.790;2022-11-24T14:28:24;4.28;;;1.60;;
68888;SDS011;55930;47.412;8.790;2022-11-24T14:31:54;7.57;;;1.67;;
68888;SDS011;55930;47.412;8.790;2022-11-24T14:42:25;5.25;;;1.20;;
68888;SDS011;55930;47.412;8.790;2022-11-24T14:45:49;4.07;;;1.20;;
68888;SDS011;55930;47.412;8.790;2022-11-24T14:49:18;5.18;;;1.52;;
68888;SDS011;55930;47.412;8.790;2022-11-24T14:52:42;7.75;;;1.65;;
68888;SDS011;55930;47.412;8.790;2022-11-24T14:56:06;7.30;;;1.85;;
68888;SDS011;55930;47.412;8.790;2022-11-24T14:59:28;5.18;;;1.20;;
68888;SDS011;55930;47.412;8.790;2022-11-24T15:02:53;9.00;;;2.28;;
68888;SDS011;55930;47.412;8.790;2022-11-24T15:06:26;7.32;;;1.50;;
68888;SDS011;55930;47.412;8.790;2022-11-24T15:09:52;9.18;;;1.35;;
68888;SDS011;55930;47.412;8.790;2022-11-24T15:13:20;8.50;;;2.28;;
68888;SDS011;55930;47.412;8.790;2022-11-24T15:16:42;6.78;;;1.40;;
68888;SDS011;55930;47.412;8.790;2022-11-24T15:20:09;6.83;;;1.50;;
68888;SDS011;55930;47.412;8.790;2022-11-24T15:24:14;4.15;;;1.40;;
68888;SDS011;55930;47.412;8.790;2022-11-24T15:27:36;6.43;;;2.10;;
68888;SDS011;55930;47.412;8.790;2022-11-24T15:31:01;8.50;;;1.93;;
68888;SDS011;55930;47.412;8.790;2022-11-24T15:34:23;7.15;;;1.60;;
68888;SDS011;55930;47.412;8.790;2022-11-24T15:37:43;6.57;;;1.73;;
68888;SDS011;55930;47.412;8.790;2022-11-24T15:41:12;5.72;;;1.52;;
68888;SDS011;55930;47.412;8.790;2022-11-24T15:44:38;7.55;;;1.60;;
68888;SDS011;55930;47.412;8.790;2022-11-24T15:47:58;7.47;;;1.73;;
68888;SDS011;55930;47.412;8.790;2022-11-24T15:51:22;5.63;;;1.70;;
68888;SDS011;55930;47.412;8.790;2022-11-24T15:54:48;5.47;;;1.85;;
68888;SDS011;55930;47.412;8.790;2022-11-24T15:58:12;6.97;;;1.63;;
68888;SDS011;55930;47.412;8.790;2022-11-24T16:04:56;6.33;;;1.30;;
68888;SDS011;55930;47.412;8.790;2022-11-24T16:08:19;5.57;;;1.38;;
68888;SDS011;55930;47.412;8.790;2022-11-24T16:11:39;6.27;;;1.53;;
68888;SDS011;55930;47.412;8.790;2022-11-24T16:15:00;3.60;;;1.30;;
68888;SDS011;55930;47.412;8.790;2022-11-24T16:18:20;8.40;;;1.73;;
68888;SDS011;55930;47.412;8.790;2022-11-24T16:21:40;8.60;;;1.60;;
68888;SDS011;55930;47.412;8.790;2022-11-24T16:25:01;6.30;;;1.50;;
68888;SDS011;55930;47.412;8.790;2022-11-24T16:28:23;6.10;;;1.42;;
68888;SDS011;55930;47.412;8.790;2022-11-24T16:31:43;3.57;;;1.03;;
68888;SDS011;55930;47.412;8.790;2022-11-24T16:35:06;5.28;;;1.25;;
68888;SDS011;55930;47.412;8.790;2022-11-24T16:38:26;3.93;;;0.97;;
68888;SDS011;55930;47.412;8.790;2022-11-24T16:41:49;7.72;;;1.55;;
68888;SDS011;55930;47.412;8.790;2022-11-24T16:45:10;5.73;;;1.00;;
68888;SDS011;55930;47.412;8.790;2022-11-24T16:48:35;7.22;;;2.03;;
68888;SDS011;55930;47.412;8.790;2022-11-24T16:51:56;5.22;;;1.48;;
68888;SDS011;55930;47.412;8.790;2022-11-24T16:55:16;3.97;;;1.57;;
68888;SDS011;55930;47.412;8.790;2022-11-24T16:58:37;5.73;;;1.30;;
68888;SDS011;55930;47.412;8.790;2022-11-24T17:02:01;5.03;;;1.60;;
68888;SDS011;55930;47.412;8.790;2022-11-24T17:05:24;7.50;;;1.13;;
68888;SDS011;55930;47.412;8.790;2022-11-24T17:08:45;5.30;;;1.50;;
68888;SDS011;55930;47.412;8.790;2022-11-24T17:12:10;4.50;;;1.25;;
68888;SDS011;55930;47.412;8.790;2022-11-24T17:15:31;4.25;;;1.00;;
68888;SDS011;55930;47.412;8.790;2022-11-24T17:18:51;4.30;;;1.30;;
68888;SDS011;55930;47.412;8.790;2022-11-24T17:22:12;6.55;;;1.25;;
68888;SDS011;55930;47.412;8.790;2022-11-24T17:25:33;4.97;;;1.30;;
68888;SDS011;55930;47.412;8.790;2022-11-24T17:28:53;3.43;;;1.00;;
68888;SDS011;55930;47.412;8.790;2022-11-24T17:35:37;4.37;;;1.00;;
68888;SDS011;55930;47.412;8.790;2022-11-24T17:38:58;7.57;;;3.85;;
68888;SDS011;55930;47.412;8.790;2022-11-24T17:42:19;18.95;;;14.75;;
68888;SDS011;55930;47.412;8.790;2022-11-24T17:45:39;22.20;;;15.67;;
68888;SDS011;55930;47.412;8.790;2022-11-24T17:49:00;20.17;;;13.97;;
68888;SDS011;55930;47.412;8.790;2022-11-24T17:52:20;19.97;;;13.17;;
68888;SDS011;55930;47.412;8.790;2022-11-24T17:55:41;12.23;;;8.00;;
68888;SDS011;55930;47.412;8.790;2022-11-24T17:59:01;6.57;;;3.87;;
68888;SDS011;55930;47.412;8.790;2022-11-24T18:02:22;4.50;;;2.10;;
68888;SDS011;55930;47.412;8.790;2022-11-24T18:05:44;5.82;;;1.77;;
68888;SDS011;55930;47.412;8.790;2022-11-24T18:09:05;11.90;;;9.33;;
68888;SDS011;55930;47.412;8.790;2022-11-24T18:12:25;15.73;;;9.97;;
68888;SDS011;55930;47.412;8.790;2022-11-24T18:15:45;15.03;;;12.47;;
68888;SDS011;55930;47.412;8.790;2022-11-24T18:19:08;15.73;;;9.27;;
68888;SDS011;55930;47.412;8.790;2022-11-24T18:22:29;18.08;;;11.65;;
68888;SDS011;55930;47.412;8.790;2022-11-24T20:36:30;8.52;;;2.50;;
68888;SDS011;55930;47.412;8.790;2022-11-24T20:39:52;4.93;;;2.13;;
68888;SDS011;55930;47.412;8.790;2022-11-24T20:43:16;3.33;;;1.83;;
68888;SDS011;55930;47.412;8.790;2022-11-24T20:46:37;4.53;;;1.63;;
68888;SDS011;55930;47.412;8.790;2022-11-24T20:49:58;6.15;;;2.30;;
68888;SDS011;55930;47.412;8.790;2022-11-24T20:53:21;4.57;;;1.73;;
68888;SDS011;55930;47.412;8.790;2022-11-24T20:56:43;25.98;;;13.00;;
68888;SDS011;55930;47.412;8.790;2022-11-24T21:00:05;28.13;;;16.00;;
68888;SDS011;55930;47.412;8.790;2022-11-24T21:03:26;23.67;;;14.73;;
68888;SDS011;55930;47.412;8.790;2022-11-24T21:06:46;13.33;;;8.27;;
68888;SDS011;55930;47.412;8.790;2022-11-24T21:10:07;10.77;;;4.80;;
68888;SDS011;55930;47.412;8.790;2022-11-24T21:13:28;10.33;;;7.07;;
68888;SDS011;55930;47.412;8.790;2022-11-24T21:16:51;13.57;;;8.90;;
68888;SDS011;55930;47.412;8.790;2022-11-24T21:20:11;14.17;;;7.07;;
68888;SDS011;55930;47.412;8.790;2022-11-24T21:23:32;7.43;;;5.27;;
68888;SDS011;55930;47.412;8.790;2022-11-24T21:26:52;7.27;;;3.33;;
68888;SDS011;55930;47.412;8.790;2022-11-24T21:30:15;10.57;;;5.50;;
68888;SDS011;55930;47.412;8.790;2022-11-24T21:33:42;7.17;;;3.13;;
68888;SDS011;55930;47.412;8.790;2022-11-24T21:37:04;4.38;;;2.17;;
68888;SDS011;55930;47.412;8.790;2022-11-24T21:40:28;10.45;;;5.30;;
68888;SDS011;55930;47.412;8.790;2022-11-24T21:43:48;9.60;;;4.73;;
68888;SDS011;55930;47.412;8.790;2022-11-24T21:47:09;7.07;;;4.53;;
68888;SDS011;55930;47.412;8.790;2022-11-24T21:50:29;8.83;;;5.43;;
68888;SDS011;55930;47.412;8.790;2022-11-24T21:53:50;6.07;;;3.50;;
68888;SDS011;55930;47.412;8.790;2022-11-24T21:57:10;6.77;;;3.00;;
68888;SDS011;55930;47.412;8.790;2022-11-24T22:00:31;8.33;;;3.93;;
68888;SDS011;55930;47.412;8.790;2022-11-24T22:03:51;6.57;;;3.90;;
68888;SDS011;55930;47.412;8.790;2022-11-24T22:07:14;18.17;;;8.80;;
68888;SDS011;55930;47.412;8.790;2022-11-24T22:10:34;10.02;;;5.68;;
68888;SDS011;55930;47.412;8.790;2022-11-24T22:13:55;12.53;;;6.13;;
68888;SDS011;55930;47.412;8.790;2022-11-24T22:17:20;7.78;;;4.70;;
68888;SDS011;55930;47.412;8.790;2022-11-24T22:20:40;8.97;;;3.70;;
68888;SDS011;55930;47.412;8.790;2022-11-24T22:24:14;7.22;;;3.17;;
68888;SDS011;55930;47.412;8.790;2022-11-24T22:27:37;5.85;;;2.25;;
68888;SDS011;55930;47.412;8.790;2022-11-24T22:31:01;5.30;;;2.40;;
68888;SDS011;55930;47.412;8.790;2022-11-24T22:34:23;4.00;;;2.45;;
68888;SDS011;55930;47.412;8.790;2022-11-24T22:37:43;5.37;;;2.80;;
68888;SDS011;55930;47.412;8.790;2022-11-24T22:41:05;3.47;;;2.10;;
68888;SDS011;55930;47.412;8.790;2022-11-24T22:44:27;4.80;;;1.85;;
68888;SDS011;55930;47.412;8.790;2022-11-24T22:47:51;5.23;;;2.17;;
68888;SDS011;55930;47.412;8.790;2022-11-24T22:51:16;4.43;;;1.75;;
68888;SDS011;55930;47.412;8.790;2022-11-24T22:54:37;4.55;;;1.65;;
68888;SDS011;55930;47.412;8.790;2022-11-24T22:57:58;3.43;;;1.40;;
68888;SDS011;55930;47.412;8.790;2022-11-24T23:01:19;2.40;;;1.40;;
68888;SDS011;55930;47.412;8.790;2022-11-24T23:04:41;3.92;;;1.27;;
68888;SDS011;55930;47.412;8.790;2022-11-24T23:08:04;2.42;;;1.15;;
68888;SDS011;55930;47.412;8.790;2022-11-24T23:11:26;2.13;;;1.33;;
68888;SDS011;55930;47.412;8.790;2022-11-24T23:14:48;7.38;;;1.77;;
68888;SDS011;55930;47.412;8.790;2022-11-24T23:18:10;4.18;;;1.23;;
68888;SDS011;55930;47.412;8.790;2022-11-24T23:21:35;2.58;;;1.15;;
68888;SDS011;55930;47.412;8.790;2022-11-24T23:24:57;3.50;;;1.05;;
68888;SDS011;55930;47.412;8.790;2022-11-24T23:28:17;4.27;;;1.70;;
68888;SDS011;55930;47.412;8.790;2022-11-24T23:31:38;2.90;;;1.40;;
68888;SDS011;55930;47.412;8.790;2022-11-24T23:34:58;3.07;;;1.20;;
68888;SDS011;55930;47.412;8.790;2022-11-24T23:38:19;7.00;;;1.60;;
68888;SDS011;55930;47.412;8.790;2022-11-24T23:41:39;2.53;;;1.10;;
68888;SDS011;55930;47.412;8.790;2022-11-24T23:45:00;1.60;;;0.80;;
68888;SDS011;55930;47.412;8.790;2022-11-24T23:48:20;3.23;;;1.17;;
68888;SDS011;55930;47.412;8.790;2022-11-24T23:51:41;4.30;;;1.20;;
68888;SDS011;55930;47.412;8.790;2022-11-24T23:55:01;1.97;;;0.97;;
68888;SDS011;55930;47.412;8.790;2022-11-24T23:58:21;1.33;;;0.97;;
